KISW/ISW METAR and TAF weather

Enter ICAO airport designator
Station Type Date Time Source
KISW METAR 2020/07/15 08:54 UTC NOAA

KISW 150854Z AUTO 00000KT 10SM BKN080 18/17 A2999 RMK AO2 SLP149 T01830172 53001


Station Type Date Time Source
KISW Decoded METAR 2020/07/15 08:54 UTC NOAA

WI RAPIDS ALEXANDER FIELD, WI, United States (KISW) 44-22N 89-50W 307M
Jul 15, 2020 - 04:54 AM EDT / 2020.07.15 0854 UTC
Wind: Calm:0
Visibility: 10 mile(s):0
Sky conditions: mostly cloudy
Temperature: 64.9 F (18.3 C)
Dew Point: 63.0 F (17.2 C)
Relative Humidity: 93%
Pressure (altimeter): 29.99 in. Hg (1015 hPa)
Pressure tendency: 0.00 inches (0.1 hPa) higher than three hours ago
ob: KISW 150854Z AUTO 00000KT 10SM BKN080 18/17 A2999 RMK AO2 SLP149 T01830172 53001
cycle: 9

Station Type Date Time Source
KISW TAF UTC NOAA

Error!

Example: see airport list